sensor_id;sensor_type;location;lat;lon;timestamp;pressure;altitude;pressure_sealevel;temperature;humidity
50434;BME280;36361;38.954;-9.002;2023-12-29T00:00:36;101552.19;;;10.87;100.00
50434;BME280;36361;38.954;-9.002;2023-12-29T00:01:37;101552.09;;;11.02;100.00
50434;BME280;36361;38.954;-9.002;2023-12-29T00:02:38;101546.09;;;10.85;100.00
50434;BME280;36361;38.954;-9.002;2023-12-29T00:03:39;101544.34;;;10.99;100.00
50434;BME280;36361;38.954;-9.002;2023-12-29T00:04:40;101542.47;;;10.99;100.00
50434;BME280;36361;38.954;-9.002;2023-12-29T00:05:41;101537.03;;;11.06;100.00
50434;BME280;36361;38.954;-9.002;2023-12-29T00:06:41;101539.19;;;11.10;100.00
50434;BME280;36361;38.954;-9.002;2023-12-29T00:07:42;101547.44;;;10.96;100.00
50434;BME280;36361;38.954;-9.002;2023-12-29T00:08:43;101533.53;;;10.84;100.00
50434;BME280;36361;38.954;-9.002;2023-12-29T00:09:44;101540.00;;;10.83;100.00
50434;BME280;36361;38.954;-9.002;2023-12-29T00:10:45;101533.13;;;10.87;100.00
50434;BME280;36361;38.954;-9.002;2023-12-29T00:11:51;101528.41;;;10.74;100.00
50434;BME280;36361;38.954;-9.002;2023-12-29T00:12:52;101530.81;;;10.84;100.00
50434;BME280;36361;38.954;-9.002;2023-12-29T00:13:53;101530.94;;;10.97;100.00
50434;BME280;36361;38.954;-9.002;2023-12-29T00:14:54;101523.94;;;10.88;100.00
50434;BME280;36361;38.954;-9.002;2023-12-29T00:15:55;101525.75;;;10.81;100.00
50434;BME280;36361;38.954;-9.002;2023-12-29T00:16:56;101530.03;;;10.69;100.00
50434;BME280;36361;38.954;-9.002;2023-12-29T00:17:57;101536.56;;;10.74;100.00
50434;BME280;36361;38.954;-9.002;2023-12-29T00:18:58;101533.34;;;10.64;100.00
50434;BME280;36361;38.954;-9.002;2023-12-29T00:19:59;101529.38;;;10.67;100.00
50434;BME280;36361;38.954;-9.002;2023-12-29T00:21:00;101523.94;;;10.88;100.00
50434;BME280;36361;38.954;-9.002;2023-12-29T00:22:01;101524.72;;;10.82;100.00
50434;BME280;36361;38.954;-9.002;2023-12-29T00:23:03;101520.69;;;10.57;100.00
50434;BME280;36361;38.954;-9.002;2023-12-29T00:24:04;101526.03;;;10.65;100.00
50434;BME280;36361;38.954;-9.002;2023-12-29T00:25:06;101525.88;;;10.73;100.00
50434;BME280;36361;38.954;-9.002;2023-12-29T00:26:09;101522.06;;;10.67;100.00
50434;BME280;36361;38.954;-9.002;2023-12-29T00:27:11;101527.56;;;10.74;100.00
50434;BME280;36361;38.954;-9.002;2023-12-29T00:28:12;101526.28;;;10.70;100.00
50434;BME280;36361;38.954;-9.002;2023-12-29T00:29:14;101517.09;;;10.71;100.00
50434;BME280;36361;38.954;-9.002;2023-12-29T00:30:15;101527.63;;;10.80;100.00
50434;BME280;36361;38.954;-9.002;2023-12-29T00:31:16;101534.19;;;10.65;100.00
50434;BME280;36361;38.954;-9.002;2023-12-29T00:32:17;101533.34;;;10.64;100.00
50434;BME280;36361;38.954;-9.002;2023-12-29T00:33:18;101523.69;;;10.62;100.00
50434;BME280;36361;38.954;-9.002;2023-12-29T00:34:19;101516.94;;;10.58;100.00
50434;BME280;36361;38.954;-9.002;2023-12-29T00:35:20;101521.09;;;10.53;100.00
50434;BME280;36361;38.954;-9.002;2023-12-29T00:36:21;101519.94;;;10.63;100.00
50434;BME280;36361;38.954;-9.002;2023-12-29T00:37:22;101520.38;;;10.66;100.00
50434;BME280;36361;38.954;-9.002;2023-12-29T00:38:22;101522.25;;;10.66;100.00
50434;BME280;36361;38.954;-9.002;2023-12-29T00:39:23;101511.63;;;10.71;100.00
50434;BME280;36361;38.954;-9.002;2023-12-29T00:40:29;101511.63;;;10.71;100.00
50434;BME280;36361;38.954;-9.002;2023-12-29T00:41:29;101512.34;;;10.79;100.00
50434;BME280;36361;38.954;-9.002;2023-12-29T00:42:30;101507.91;;;10.78;100.00
50434;BME280;36361;38.954;-9.002;2023-12-29T00:43:31;101508.44;;;10.89;100.00
50434;BME280;36361;38.954;-9.002;2023-12-29T00:44:32;101500.06;;;10.90;100.00
50434;BME280;36361;38.954;-9.002;2023-12-29T00:45:33;101494.16;;;10.87;100.00
50434;BME280;36361;38.954;-9.002;2023-12-29T00:46:37;101495.16;;;10.79;100.00
50434;BME280;36361;38.954;-9.002;2023-12-29T00:47:37;101494.97;;;10.80;100.00
50434;BME280;36361;38.954;-9.002;2023-12-29T00:48:38;101489.13;;;10.83;100.00
50434;BME280;36361;38.954;-9.002;2023-12-29T00:49:39;101486.81;;;10.87;100.00
50434;BME280;36361;38.954;-9.002;2023-12-29T00:50:42;101491.34;;;11.01;100.00
50434;BME280;36361;38.954;-9.002;2023-12-29T00:51:43;101482.75;;;11.04;100.00
50434;BME280;36361;38.954;-9.002;2023-12-29T00:52:44;101484.09;;;10.87;100.00
50434;BME280;36361;38.954;-9.002;2023-12-29T00:53:45;101476.28;;;11.05;100.00
50434;BME280;36361;38.954;-9.002;2023-12-29T00:54:46;101467.09;;;11.13;100.00
50434;BME280;36361;38.954;-9.002;2023-12-29T00:55:46;101465.06;;;11.22;100.00
50434;BME280;36361;38.954;-9.002;2023-12-29T00:56:50;101462.97;;;11.24;100.00
50434;BME280;36361;38.954;-9.002;2023-12-29T00:57:51;101473.72;;;10.97;100.00
50434;BME280;36361;38.954;-9.002;2023-12-29T00:58:52;101466.69;;;10.81;100.00
50434;BME280;36361;38.954;-9.002;2023-12-29T00:59:54;101472.56;;;10.85;100.00
50434;BME280;36361;38.954;-9.002;2023-12-29T01:00:54;101472.72;;;10.77;100.00
50434;BME280;36361;38.954;-9.002;2023-12-29T01:01:55;101478.56;;;10.74;100.00
50434;BME280;36361;38.954;-9.002;2023-12-29T01:02:56;101484.78;;;10.68;100.00
50434;BME280;36361;38.954;-9.002;2023-12-29T01:03:57;101481.69;;;10.71;100.00
50434;BME280;36361;38.954;-9.002;2023-12-29T01:04:58;101490.38;;;10.88;100.00
50434;BME280;36361;38.954;-9.002;2023-12-29T01:05:59;101491.75;;;10.98;100.00
50434;BME280;36361;38.954;-9.002;2023-12-29T01:07:01;101494.75;;;10.82;100.00
50434;BME280;36361;38.954;-9.002;2023-12-29T01:08:02;101481.94;;;10.76;100.00
50434;BME280;36361;38.954;-9.002;2023-12-29T01:09:02;101489.50;;;10.80;100.00
50434;BME280;36361;38.954;-9.002;2023-12-29T01:10:04;101487.38;;;10.76;100.00
50434;BME280;36361;38.954;-9.002;2023-12-29T01:11:05;101495.31;;;10.71;100.00
50434;BME280;36361;38.954;-9.002;2023-12-29T01:12:06;101488.63;;;10.73;100.00
50434;BME280;36361;38.954;-9.002;2023-12-29T01:13:07;101484.84;;;10.74;100.00
50434;BME280;36361;38.954;-9.002;2023-12-29T01:14:08;101484.91;;;10.81;100.00
50434;BME280;36361;38.954;-9.002;2023-12-29T01:15:08;101485.56;;;10.83;100.00
50434;BME280;36361;38.954;-9.002;2023-12-29T01:16:09;101487.09;;;10.92;100.00
50434;BME280;36361;38.954;-9.002;2023-12-29T01:17:10;101476.13;;;10.86;100.00
50434;BME280;36361;38.954;-9.002;2023-12-29T01:18:11;101478.63;;;10.80;100.00
50434;BME280;36361;38.954;-9.002;2023-12-29T01:19:12;101474.03;;;10.81;100.00
50434;BME280;36361;38.954;-9.002;2023-12-29T01:20:13;101468.56;;;10.81;100.00
50434;BME280;36361;38.954;-9.002;2023-12-29T01:21:14;101460.16;;;10.76;100.00
50434;BME280;36361;38.954;-9.002;2023-12-29T01:22:15;101455.88;;;10.95;100.00
50434;BME280;36361;38.954;-9.002;2023-12-29T01:23:15;101454.91;;;11.02;100.00
50434;BME280;36361;38.954;-9.002;2023-12-29T01:24:18;101438.97;;;10.99;100.00
50434;BME280;36361;38.954;-9.002;2023-12-29T01:25:18;101445.50;;;10.77;100.00
50434;BME280;36361;38.954;-9.002;2023-12-29T01:26:19;101448.22;;;10.77;100.00
50434;BME280;36361;38.954;-9.002;2023-12-29T01:27:20;101444.63;;;10.70;100.00
50434;BME280;36361;38.954;-9.002;2023-12-29T01:28:21;101449.88;;;10.78;100.00
50434;BME280;36361;38.954;-9.002;2023-12-29T01:29:22;101446.81;;;10.88;100.00
50434;BME280;36361;38.954;-9.002;2023-12-29T01:30:23;101443.81;;;10.76;100.00
50434;BME280;36361;38.954;-9.002;2023-12-29T01:31:24;101450.38;;;10.60;100.00
50434;BME280;36361;38.954;-9.002;2023-12-29T01:32:29;101447.22;;;10.57;100.00
50434;BME280;36361;38.954;-9.002;2023-12-29T01:33:29;101445.47;;;10.49;100.00
50434;BME280;36361;38.954;-9.002;2023-12-29T01:34:30;101446.97;;;10.51;100.00
50434;BME280;36361;38.954;-9.002;2023-12-29T01:35:33;101446.44;;;10.63;100.00
50434;BME280;36361;38.954;-9.002;2023-12-29T01:36:33;101449.47;;;10.74;100.00
50434;BME280;36361;38.954;-9.002;2023-12-29T01:37:34;101449.03;;;10.71;100.00
50434;BME280;36361;38.954;-9.002;2023-12-29T01:38:35;101456.63;;;10.54;100.00
50434;BME280;36361;38.954;-9.002;2023-12-29T01:39:36;101463.31;;;10.51;100.00
50434;BME280;36361;38.954;-9.002;2023-12-29T01:40:46;101467.84;;;10.44;100.00
50434;BME280;36361;38.954;-9.002;2023-12-29T01:41:47;101457.59;;;10.46;100.00
50434;BME280;36361;38.954;-9.002;2023-12-29T01:42:49;101463.00;;;10.68;100.00
50434;BME280;36361;38.954;-9.002;2023-12-29T01:45:03;101454.00;;;10.67;100.00
50434;BME280;36361;38.954;-9.002;2023-12-29T01:46:04;101445.84;;;10.67;100.00
50434;BME280;36361;38.954;-9.002;2023-12-29T01:47:11;101445.81;;;10.61;100.00
50434;BME280;36361;38.954;-9.002;2023-12-29T01:48:13;101447.47;;;10.62;100.00
50434;BME280;36361;38.954;-9.002;2023-12-29T01:49:15;101439.53;;;10.67;100.00
50434;BME280;36361;38.954;-9.002;2023-12-29T01:50:19;101434.72;;;10.90;100.00
50434;BME280;36361;38.954;-9.002;2023-12-29T01:51:25;101424.19;;;10.87;100.00
50434;BME280;36361;38.954;-9.002;2023-12-29T01:52:27;101425.91;;;10.95;100.00
50434;BME280;36361;38.954;-9.002;2023-12-29T01:53:28;101437.56;;;10.82;100.00
50434;BME280;36361;38.954;-9.002;2023-12-29T01:54:32;101441.88;;;10.98;100.00
50434;BME280;36361;38.954;-9.002;2023-12-29T01:55:36;101441.06;;;10.97;100.00
50434;BME280;36361;38.954;-9.002;2023-12-29T01:56:38;101447.97;;;10.72;100.00
50434;BME280;36361;38.954;-9.002;2023-12-29T01:57:39;101452.13;;;10.68;100.00
50434;BME280;36361;38.954;-9.002;2023-12-29T01:58:40;101460.88;;;10.63;100.00
50434;BME280;36361;38.954;-9.002;2023-12-29T01:59:41;101456.28;;;10.64;100.00
50434;BME280;36361;38.954;-9.002;2023-12-29T02:00:42;101455.25;;;10.65;100.00
50434;BME280;36361;38.954;-9.002;2023-12-29T02:01:43;101452.78;;;10.48;100.00
50434;BME280;36361;38.954;-9.002;2023-12-29T02:02:46;101452.41;;;10.51;100.00
50434;BME280;36361;38.954;-9.002;2023-12-29T02:03:47;101443.72;;;10.41;100.00
50434;BME280;36361;38.954;-9.002;2023-12-29T02:04:48;101441.53;;;10.51;100.00
50434;BME280;36361;38.954;-9.002;2023-12-29T02:05:49;101442.25;;;10.39;100.00
50434;BME280;36361;38.954;-9.002;2023-12-29T02:06:51;101432.53;;;10.30;100.00
50434;BME280;36361;38.954;-9.002;2023-12-29T02:07:52;101424.03;;;10.39;100.00
50434;BME280;36361;38.954;-9.002;2023-12-29T02:08:54;101431.34;;;10.39;100.00
50434;BME280;36361;38.954;-9.002;2023-12-29T02:09:57;101422.78;;;10.63;100.00
50434;BME280;36361;38.954;-9.002;2023-12-29T02:10:59;101416.84;;;10.53;100.00
50434;BME280;36361;38.954;-9.002;2023-12-29T02:12:00;101408.00;;;10.51;100.00
50434;BME280;36361;38.954;-9.002;2023-12-29T02:13:01;101412.72;;;10.64;100.00
50434;BME280;36361;38.954;-9.002;2023-12-29T02:14:02;101411.44;;;10.60;100.00
50434;BME280;36361;38.954;-9.002;2023-12-29T02:15:04;101416.53;;;10.69;100.00
50434;BME280;36361;38.954;-9.002;2023-12-29T02:16:11;101403.22;;;10.81;100.00
50434;BME280;36361;38.954;-9.002;2023-12-29T02:17:26;101418.59;;;10.61;100.00
50434;BME280;36361;38.954;-9.002;2023-12-29T02:18:30;101420.78;;;10.50;100.00
50434;BME280;36361;38.954;-9.002;2023-12-29T02:19:41;101429.06;;;10.21;100.00
50434;BME280;36361;38.954;-9.002;2023-12-29T02:20:42;101432.31;;;10.31;100.00
50434;BME280;36361;38.954;-9.002;2023-12-29T02:21:44;101444.19;;;10.45;100.00
50434;BME280;36361;38.954;-9.002;2023-12-29T02:22:46;101444.44;;;10.50;100.00
50434;BME280;36361;38.954;-9.002;2023-12-29T02:23:47;101451.63;;;10.58;100.00
50434;BME280;36361;38.954;-9.002;2023-12-29T02:24:48;101448.91;;;10.58;100.00
50434;BME280;36361;38.954;-9.002;2023-12-29T02:25:50;101449.94;;;10.57;100.00
50434;BME280;36361;38.954;-9.002;2023-12-29T02:28:24;101449.47;;;10.74;100.00
50434;BME280;36361;38.954;-9.002;2023-12-29T02:29:26;101442.69;;;10.64;100.00
50434;BME280;36361;38.954;-9.002;2023-12-29T02:30:32;101435.75;;;10.61;100.00
50434;BME280;36361;38.954;-9.002;2023-12-29T02:31:39;101441.91;;;10.48;100.00
50434;BME280;36361;38.954;-9.002;2023-12-29T02:32:46;101439.13;;;10.42;100.00
50434;BME280;36361;38.954;-9.002;2023-12-29T02:33:47;101437.91;;;10.44;100.00
50434;BME280;36361;38.954;-9.002;2023-12-29T02:34:50;101441.13;;;10.54;100.00
50434;BME280;36361;38.954;-9.002;2023-12-29T02:35:55;101434.00;;;10.53;100.00
50434;BME280;36361;38.954;-9.002;2023-12-29T02:36:57;101443.72;;;10.63;100.00
50434;BME280;36361;38.954;-9.002;2023-12-29T02:37:59;101441.00;;;10.41;100.00
50434;BME280;36361;38.954;-9.002;2023-12-29T02:39:00;101445.81;;;10.61;100.00
50434;BME280;36361;38.954;-9.002;2023-12-29T02:40:01;101435.69;;;10.54;100.00
50434;BME280;36361;38.954;-9.002;2023-12-29T02:41:02;101428.56;;;10.53;100.00
50434;BME280;36361;38.954;-9.002;2023-12-29T02:42:04;101438.16;;;10.49;100.00
50434;BME280;36361;38.954;-9.002;2023-12-29T02:43:05;101429.75;;;10.44;100.00
50434;BME280;36361;38.954;-9.002;2023-12-29T02:44:06;101438.94;;;10.43;100.00
50434;BME280;36361;38.954;-9.002;2023-12-29T02:45:07;101425.34;;;10.43;100.00
50434;BME280;36361;38.954;-9.002;2023-12-29T02:46:08;101425.84;;;10.53;100.00
50434;BME280;36361;38.954;-9.002;2023-12-29T02:47:09;101430.66;;;10.51;100.00
50434;BME280;36361;38.954;-9.002;2023-12-29T02:48:09;101431.56;;;10.37;100.00
50434;BME280;36361;38.954;-9.002;2023-12-29T02:49:10;101434.78;;;10.47;100.00
50434;BME280;36361;38.954;-9.002;2023-12-29T02:50:13;101426.53;;;10.62;100.00
50434;BME280;36361;38.954;-9.002;2023-12-29T02:51:14;101430.66;;;10.51;100.00
50434;BME280;36361;38.954;-9.002;2023-12-29T02:52:15;101428.06;;;10.43;100.00
50434;BME280;36361;38.954;-9.002;2023-12-29T02:53:16;101424.81;;;10.33;100.00
50434;BME280;36361;38.954;-9.002;2023-12-29T02:54:17;101433.88;;;10.40;100.00
50434;BME280;36361;38.954;-9.002;2023-12-29T02:55:20;101432.97;;;10.33;100.00
50434;BME280;36361;38.954;-9.002;2023-12-29T02:56:21;101429.16;;;10.28;100.00
50434;BME280;36361;38.954;-9.002;2023-12-29T02:57:22;101444.66;;;10.27;100.00
50434;BME280;36361;38.954;-9.002;2023-12-29T02:58:23;101451.78;;;10.28;100.00
50434;BME280;36361;38.954;-9.002;2023-12-29T02:59:24;101448.88;;;10.15;100.00
50434;BME280;36361;38.954;-9.002;2023-12-29T03:00:24;101443.84;;;10.33;100.00
50434;BME280;36361;38.954;-9.002;2023-12-29T03:01:25;101441.09;;;10.27;100.00
50434;BME280;36361;38.954;-9.002;2023-12-29T03:02:29;101438.38;;;10.27;100.00
50434;BME280;36361;38.954;-9.002;2023-12-29T03:03:30;101435.84;;;10.25;100.00
50434;BME280;36361;38.954;-9.002;2023-12-29T03:04:30;101435.84;;;10.25;100.00
50434;BME280;36361;38.954;-9.002;2023-12-29T03:05:31;101432.81;;;10.20;100.00
50434;BME280;36361;38.954;-9.002;2023-12-29T03:06:32;101438.28;;;10.41;100.00
50434;BME280;36361;38.954;-9.002;2023-12-29T03:07:33;101442.19;;;10.32;100.00
50434;BME280;36361;38.954;-9.002;2023-12-29T03:08:34;101455.97;;;10.31;100.00
50434;BME280;36361;38.954;-9.002;2023-12-29T03:09:34;101454.59;;;10.20;100.00
50434;BME280;36361;38.954;-9.002;2023-12-29T03:10:35;101460.44;;;10.17;100.00
50434;BME280;36361;38.954;-9.002;2023-12-29T03:11:36;101460.22;;;10.18;100.00
50434;BME280;36361;38.954;-9.002;2023-12-29T03:12:37;101446.31;;;10.49;100.00
50434;BME280;36361;38.954;-9.002;2023-12-29T03:13:38;101453.63;;;10.49;100.00
50434;BME280;36361;38.954;-9.002;2023-12-29T03:14:39;101440.72;;;10.58;100.00
50434;BME280;36361;38.954;-9.002;2023-12-29T03:15:40;101449.19;;;10.69;100.00
50434;BME280;36361;38.954;-9.002;2023-12-29T03:16:41;101440.44;;;10.74;100.00
50434;BME280;36361;38.954;-9.002;2023-12-29T03:17:42;101437.97;;;10.79;100.00
50434;BME280;36361;38.954;-9.002;2023-12-29T03:18:42;101431.50;;;10.80;100.00
50434;BME280;36361;38.954;-9.002;2023-12-29T03:19:43;101422.09;;;10.82;100.00
50434;BME280;36361;38.954;-9.002;2023-12-29T03:20:44;101426.69;;;10.82;100.00
50434;BME280;36361;38.954;-9.002;2023-12-29T03:21:45;101420.84;;;10.85;100.00
50434;BME280;36361;38.954;-9.002;2023-12-29T03:22:45;101415.44;;;10.64;100.00
50434;BME280;36361;38.954;-9.002;2023-12-29T03:23:46;101424.53;;;10.71;100.00
50434;BME280;36361;38.954;-9.002;2023-12-29T03:24:48;101421.44;;;10.52;100.00
50434;BME280;36361;38.954;-9.002;2023-12-29T03:25:49;101433.78;;;10.27;100.00
50434;BME280;36361;38.954;-9.002;2023-12-29T03:26:49;101435.91;;;10.32;100.00
50434;BME280;36361;38.954;-9.002;2023-12-29T03:27:50;101444.38;;;10.22;100.00
50434;BME280;36361;38.954;-9.002;2023-12-29T03:28:51;101442.50;;;10.22;100.00
50434;BME280;36361;38.954;-9.002;2023-12-29T03:29:52;101435.56;;;10.41;100.00
50434;BME280;36361;38.954;-9.002;2023-12-29T03:30:55;101431.50;;;10.52;100.00
50434;BME280;36361;38.954;-9.002;2023-12-29T03:31:56;101429.84;;;10.58;100.00
50434;BME280;36361;38.954;-9.002;2023-12-29T03:32:56;101420.88;;;10.36;100.00
50434;BME280;36361;38.954;-9.002;2023-12-29T03:33:57;101420.88;;;10.36;100.00
50434;BME280;36361;38.954;-9.002;2023-12-29T03:34:59;101428.44;;;10.40;100.00
50434;BME280;36361;38.954;-9.002;2023-12-29T03:36:00;101429.75;;;10.44;100.00
50434;BME280;36361;38.954;-9.002;2023-12-29T03:37:01;101426.97;;;10.38;100.00
50434;BME280;36361;38.954;-9.002;2023-12-29T03:38:02;101437.28;;;10.42;100.00
50434;BME280;36361;38.954;-9.002;2023-12-29T03:39:03;101427.66;;;10.46;100.00
50434;BME280;36361;38.954;-9.002;2023-12-29T03:40:05;101416.47;;;10.35;100.00
50434;BME280;36361;38.954;-9.002;2023-12-29T03:41:06;101415.50;;;10.42;100.00
50434;BME280;36361;38.954;-9.002;2023-12-29T03:42:07;101420.78;;;10.50;100.00
50434;BME280;36361;38.954;-9.002;2023-12-29T03:43:08;101408.06;;;10.58;100.00
50434;BME280;36361;38.954;-9.002;2023-12-29T03:44:09;101403.16;;;10.74;100.00
50434;BME280;36361;38.954;-9.002;2023-12-29T03:45:09;101410.69;;;10.72;100.00
50434;BME280;36361;38.954;-9.002;2023-12-29T03:47:18;101402.25;;;10.39;100.00
50434;BME280;36361;38.954;-9.002;2023-12-29T03:48:18;101408.75;;;10.38;100.00
50434;BME280;36361;38.954;-9.002;2023-12-29T03:49:20;101409.16;;;10.35;100.00
50434;BME280;36361;38.954;-9.002;2023-12-29T03:50:21;101404.69;;;10.28;100.00
50434;BME280;36361;38.954;-9.002;2023-12-29T03:51:23;101413.28;;;10.31;100.00
50434;BME280;36361;38.954;-9.002;2023-12-29T03:52:24;101423.13;;;10.32;100.00
50434;BME280;36361;38.954;-9.002;2023-12-29T03:53:25;101416.22;;;10.30;100.00
50434;BME280;36361;38.954;-9.002;2023-12-29T03:54:26;101418.19;;;10.21;100.00
50434;BME280;36361;38.954;-9.002;2023-12-29T03:55:27;101414.47;;;10.22;100.00
50434;BME280;36361;38.954;-9.002;2023-12-29T03:56:29;101411.84;;;10.14;100.00
50434;BME280;36361;38.954;-9.002;2023-12-29T03:57:29;101408.44;;;10.27;100.00
50434;BME280;36361;38.954;-9.002;2023-12-29T03:58:30;101410.31;;;10.26;100.00
50434;BME280;36361;38.954;-9.002;2023-12-29T03:59:31;101416.28;;;10.36;100.00
50434;BME280;36361;38.954;-9.002;2023-12-29T04:00:32;101414.59;;;10.35;100.00
50434;BME280;36361;38.954;-9.002;2023-12-29T04:01:33;101424.16;;;10.31;100.00
50434;BME280;36361;38.954;-9.002;2023-12-29T04:02:35;101423.41;;;10.37;100.00
50434;BME280;36361;38.954;-9.002;2023-12-29T04:03:35;101419.69;;;10.45;100.00
50434;BME280;36361;38.954;-9.002;2023-12-29T04:04:38;101418.78;;;10.38;100.00
50434;BME280;36361;38.954;-9.002;2023-12-29T04:05:38;101419.22;;;10.20;100.00
50434;BME280;36361;38.954;-9.002;2023-12-29T04:06:39;101421.22;;;10.11;100.00
50434;BME280;36361;38.954;-9.002;2023-12-29T04:07:40;101420.78;;;10.08;100.00
50434;BME280;36361;38.954;-9.002;2023-12-29T04:08:41;101424.28;;;10.02;100.00
50434;BME280;36361;38.954;-9.002;2023-12-29T04:09:42;101425.34;;;10.22;100.00
50434;BME280;36361;38.954;-9.002;2023-12-29T04:10:43;101437.34;;;10.13;100.00
50434;BME280;36361;38.954;-9.002;2023-12-29T04:11:44;101436.84;;;10.03;100.00
50434;BME280;36361;38.954;-9.002;2023-12-29T04:12:45;101432.56;;;9.93;100.00
50434;BME280;36361;38.954;-9.002;2023-12-29T04:13:45;101431.78;;;10.00;100.00
50434;BME280;36361;38.954;-9.002;2023-12-29T04:14:46;101421.88;;;10.13;100.00
50434;BME280;36361;38.954;-9.002;2023-12-29T04:15:47;101424.41;;;10.15;100.00
50434;BME280;36361;38.954;-9.002;2023-12-29T04:16:48;101430.72;;;10.15;100.00
50434;BME280;36361;38.954;-9.002;2023-12-29T04:17:49;101436.09;;;10.30;100.00
50434;BME280;36361;38.954;-9.002;2023-12-29T04:18:49;101436.22;;;10.22;100.00
50434;BME280;36361;38.954;-9.002;2023-12-29T04:19:50;101428.22;;;10.20;100.00
50434;BME280;36361;38.954;-9.002;2023-12-29T04:20:51;101428.34;;;10.27;100.00
50434;BME280;36361;38.954;-9.002;2023-12-29T04:21:52;101428.69;;;10.24;100.00
50434;BME280;36361;38.954;-9.002;2023-12-29T04:22:54;101420.59;;;10.31;100.00
50434;BME280;36361;38.954;-9.002;2023-12-29T04:23:55;101418.06;;;10.08;100.00
50434;BME280;36361;38.954;-9.002;2023-12-29T04:24:57;101420.75;;;10.22;100.00
50434;BME280;36361;38.954;-9.002;2023-12-29T04:25:58;101417.13;;;10.37;100.00
50434;BME280;36361;38.954;-9.002;2023-12-29T04:26:59;101414.31;;;10.51;100.00
50434;BME280;36361;38.954;-9.002;2023-12-29T04:28:00;101415.81;;;10.54;100.00
50434;BME280;36361;38.954;-9.002;2023-12-29T04:29:01;101410.09;;;10.49;100.00
50434;BME280;36361;38.954;-9.002;2023-12-29T04:30:02;101412.56;;;10.22;100.00
50434;BME280;36361;38.954;-9.002;2023-12-29T04:31:05;101414.38;;;10.15;100.00
50434;BME280;36361;38.954;-9.002;2023-12-29T04:32:06;101406.22;;;10.37;100.00
50434;BME280;36361;38.954;-9.002;2023-12-29T04:33:06;101413.69;;;10.28;100.00
50434;BME280;36361;38.954;-9.002;2023-12-29T04:34:07;101402.19;;;10.11;100.00
50434;BME280;36361;38.954;-9.002;2023-12-29T04:35:08;101412.16;;;10.04;100.00
50434;BME280;36361;38.954;-9.002;2023-12-29T04:36:13;101406.91;;;10.03;100.00
50434;BME280;36361;38.954;-9.002;2023-12-29T04:37:13;101406.88;;;10.17;100.00
50434;BME280;36361;38.954;-9.002;2023-12-29T04:38:14;101404.84;;;10.05;100.00
50434;BME280;36361;38.954;-9.002;2023-12-29T04:39:17;101409.75;;;9.94;100.00
50434;BME280;36361;38.954;-9.002;2023-12-29T04:40:19;101395.72;;;9.91;100.00
50434;BME280;36361;38.954;-9.002;2023-12-29T04:41:20;101398.56;;;10.04;100.00
50434;BME280;36361;38.954;-9.002;2023-12-29T04:42:21;101405.75;;;9.90;100.00
50434;BME280;36361;38.954;-9.002;2023-12-29T04:43:22;101404.09;;;9.89;100.00
50434;BME280;36361;38.954;-9.002;2023-12-29T04:44:23;101404.59;;;10.00;100.00
50434;BME280;36361;38.954;-9.002;2023-12-29T04:45:23;101410.41;;;9.96;100.00
50434;BME280;36361;38.954;-9.002;2023-12-29T04:46:24;101408.84;;;9.87;100.00
50434;BME280;36361;38.954;-9.002;2023-12-29T04:47:25;101408.47;;;9.90;100.00
50434;BME280;36361;38.954;-9.002;2023-12-29T04:48:26;101412.13;;;9.97;100.00
50434;BME280;36361;38.954;-9.002;2023-12-29T04:49:27;101414.44;;;10.01;100.00
50434;BME280;36361;38.954;-9.002;2023-12-29T04:50:27;101408.88;;;10.09;100.00
50434;BME280;36361;38.954;-9.002;2023-12-29T04:51:28;101408.09;;;9.93;100.00
50434;BME280;36361;38.954;-9.002;2023-12-29T04:52:29;101403.69;;;9.92;100.00
50434;BME280;36361;38.954;-9.002;2023-12-29T04:53:30;101406.41;;;9.92;100.00
50434;BME280;36361;38.954;-9.002;2023-12-29T04:54:31;101400.63;;;9.81;100.00
50434;BME280;36361;38.954;-9.002;2023-12-29T04:55:31;101402.25;;;9.75;100.00
50434;BME280;36361;38.954;-9.002;2023-12-29T04:56:32;101392.81;;;9.71;100.00
50434;BME280;36361;38.954;-9.002;2023-12-29T04:57:33;101396.97;;;9.88;100.00
50434;BME280;36361;38.954;-9.002;2023-12-29T04:58:34;101402.44;;;9.95;100.00
50434;BME280;36361;38.954;-9.002;2023-12-29T04:59:35;101403.75;;;9.99;100.00
50434;BME280;36361;38.954;-9.002;2023-12-29T05:00:35;101402.00;;;9.91;100.00
50434;BME280;36361;38.954;-9.002;2023-12-29T05:01:36;101411.31;;;9.82;100.00
50434;BME280;36361;38.954;-9.002;2023-12-29T05:02:38;101408.50;;;9.76;100.00
50434;BME280;36361;38.954;-9.002;2023-12-29T05:03:39;101406.78;;;9.89;100.00
50434;BME280;36361;38.954;-9.002;2023-12-29T05:04:40;101404.13;;;9.75;100.00
50434;BME280;36361;38.954;-9.002;2023-12-29T05:05:41;101405.16;;;9.74;100.00
50434;BME280;36361;38.954;-9.002;2023-12-29T05:06:42;101398.88;;;9.73;100.00
50434;BME280;36361;38.954;-9.002;2023-12-29T05:07:42;101395.88;;;9.68;100.00
50434;BME280;36361;38.954;-9.002;2023-12-29T05:08:43;101394.69;;;9.71;100.00
50434;BME280;36361;38.954;-9.002;2023-12-29T05:09:44;101396.56;;;9.70;100.00
50434;BME280;36361;38.954;-9.002;2023-12-29T05:10:45;101393.25;;;9.75;100.00
50434;BME280;36361;38.954;-9.002;2023-12-29T05:11:46;101392.53;;;9.66;100.00
50434;BME280;36361;38.954;-9.002;2023-12-29T05:12:46;101394.78;;;9.62;100.00
50434;BME280;36361;38.954;-9.002;2023-12-29T05:13:47;101400.69;;;9.66;100.00
50434;BME280;36361;38.954;-9.002;2023-12-29T05:14:48;101393.84;;;9.70;100.00
50434;BME280;36361;38.954;-9.002;2023-12-29T05:15:49;101385.78;;;9.62;100.00
50434;BME280;36361;38.954;-9.002;2023-12-29T05:16:50;101382.56;;;9.73;100.00